sensor_id;sensor_type;location;lat;lon;timestamp;pressure;altitude;pressure_sealevel;temperature;humidity
24422;BME280;12600;53.326;-6.298;2023-11-19T00:01:15;99521.63;;;13.59;83.55
24422;BME280;12600;53.326;-6.298;2023-11-19T00:04:04;99512.63;;;13.42;83.69
24422;BME280;12600;53.326;-6.298;2023-11-19T00:06:54;99525.59;;;13.46;85.45
24422;BME280;12600;53.326;-6.298;2023-11-19T00:09:45;99531.19;;;13.49;85.15
24422;BME280;12600;53.326;-6.298;2023-11-19T00:12:37;99518.69;;;13.52;84.85
24422;BME280;12600;53.326;-6.298;2023-11-19T00:15:26;99514.38;;;13.51;84.78
24422;BME280;12600;53.326;-6.298;2023-11-19T00:18:16;99501.28;;;13.44;84.60
24422;BME280;12600;53.326;-6.298;2023-11-19T00:21:06;99500.13;;;13.29;84.78
24422;BME280;12600;53.326;-6.298;2023-11-19T00:23:57;99504.03;;;13.28;84.97
24422;BME280;12600;53.326;-6.298;2023-11-19T00:26:47;99504.81;;;13.29;84.79
24422;BME280;12600;53.326;-6.298;2023-11-19T00:29:38;99490.03;;;13.18;84.93
24422;BME280;12600;53.326;-6.298;2023-11-19T00:32:28;99516.50;;;13.41;84.93
24422;BME280;12600;53.326;-6.298;2023-11-19T00:35:18;99495.81;;;13.28;85.83
24422;BME280;12600;53.326;-6.298;2023-11-19T00:38:08;99515.38;;;13.27;86.27
24422;BME280;12600;53.326;-6.298;2023-11-19T00:40:57;99516.94;;;13.28;86.54
24422;BME280;12600;53.326;-6.298;2023-11-19T00:43:47;99513.41;;;13.27;86.29
24422;BME280;12600;53.326;-6.298;2023-11-19T00:46:38;99519.78;;;13.31;86.49
24422;BME280;12600;53.326;-6.298;2023-11-19T00:49:28;99514.81;;;13.21;86.82
24422;BME280;12600;53.326;-6.298;2023-11-19T00:52:18;99515.41;;;13.14;86.79
24422;BME280;12600;53.326;-6.298;2023-11-19T00:55:08;99509.44;;;13.25;86.01
24422;BME280;12600;53.326;-6.298;2023-11-19T00:58:00;99519.16;;;13.22;86.31
24422;BME280;12600;53.326;-6.298;2023-11-19T01:00:51;99504.53;;;13.18;86.12
24422;BME280;12600;53.326;-6.298;2023-11-19T01:03:41;99504.38;;;13.11;86.21
24422;BME280;12600;53.326;-6.298;2023-11-19T01:06:32;99492.34;;;13.15;85.80
24422;BME280;12600;53.326;-6.298;2023-11-19T01:09:22;99500.31;;;13.21;85.57
24422;BME280;12600;53.326;-6.298;2023-11-19T01:12:12;99496.69;;;13.16;85.57
24422;BME280;12600;53.326;-6.298;2023-11-19T01:15:01;99477.00;;;13.14;85.30
24422;BME280;12600;53.326;-6.298;2023-11-19T01:17:51;99465.47;;;13.21;84.78
24422;BME280;12600;53.326;-6.298;2023-11-19T01:20:42;99475.63;;;13.21;84.71
24422;BME280;12600;53.326;-6.298;2023-11-19T01:23:33;99464.66;;;13.21;84.29
24422;BME280;12600;53.326;-6.298;2023-11-19T01:26:22;99444.09;;;13.14;83.98
24422;BME280;12600;53.326;-6.298;2023-11-19T01:29:12;99447.94;;;13.10;84.43
24422;BME280;12600;53.326;-6.298;2023-11-19T01:32:03;99458.28;;;13.16;84.05
24422;BME280;12600;53.326;-6.298;2023-11-19T01:34:52;99458.72;;;13.19;84.02
24422;BME280;12600;53.326;-6.298;2023-11-19T01:37:44;99449.38;;;13.20;83.99
24422;BME280;12600;53.326;-6.298;2023-11-19T01:40:33;99447.31;;;13.16;84.31
24422;BME280;12600;53.326;-6.298;2023-11-19T01:43:34;99454.28;;;13.14;84.29
24422;BME280;12600;53.326;-6.298;2023-11-19T01:46:24;99452.69;;;13.13;84.76
24422;BME280;12600;53.326;-6.298;2023-11-19T01:49:15;99455.00;;;13.11;85.06
24422;BME280;12600;53.326;-6.298;2023-11-19T01:52:05;99457.59;;;13.20;84.23
24422;BME280;12600;53.326;-6.298;2023-11-19T01:54:57;99453.94;;;13.15;84.09
24422;BME280;12600;53.326;-6.298;2023-11-19T01:57:48;99448.31;;;13.24;84.37
24422;BME280;12600;53.326;-6.298;2023-11-19T02:00:38;99444.31;;;13.22;84.81
24422;BME280;12600;53.326;-6.298;2023-11-19T02:03:27;99451.19;;;13.31;84.25
24422;BME280;12600;53.326;-6.298;2023-11-19T02:06:17;99448.53;;;13.35;84.35
24422;BME280;12600;53.326;-6.298;2023-11-19T02:09:07;99448.44;;;13.31;84.26
24422;BME280;12600;53.326;-6.298;2023-11-19T02:11:57;99453.25;;;13.34;83.64
24422;BME280;12600;53.326;-6.298;2023-11-19T02:14:47;99434.66;;;13.28;83.90
24422;BME280;12600;53.326;-6.298;2023-11-19T02:17:36;99432.88;;;13.35;83.52
24422;BME280;12600;53.326;-6.298;2023-11-19T02:20:26;99446.59;;;13.35;83.06
24422;BME280;12600;53.326;-6.298;2023-11-19T02:23:16;99446.16;;;13.33;83.39
24422;BME280;12600;53.326;-6.298;2023-11-19T02:26:14;99437.56;;;13.35;83.54
24422;BME280;12600;53.326;-6.298;2023-11-19T02:29:07;99441.03;;;13.32;84.33
24422;BME280;12600;53.326;-6.298;2023-11-19T02:31:56;99438.78;;;13.37;84.00
24422;BME280;12600;53.326;-6.298;2023-11-19T02:34:46;99424.91;;;13.30;84.03
24422;BME280;12600;53.326;-6.298;2023-11-19T02:37:35;99421.84;;;13.32;84.29
24422;BME280;12600;53.326;-6.298;2023-11-19T02:40:26;99426.44;;;13.28;84.48
24422;BME280;12600;53.326;-6.298;2023-11-19T02:43:15;99426.25;;;13.36;84.60
24422;BME280;12600;53.326;-6.298;2023-11-19T02:46:07;99416.75;;;13.50;84.21
24422;BME280;12600;53.326;-6.298;2023-11-19T02:48:59;99401.78;;;13.47;84.04
24422;BME280;12600;53.326;-6.298;2023-11-19T02:51:49;99404.38;;;13.40;84.10
24422;BME280;12600;53.326;-6.298;2023-11-19T02:54:38;99414.09;;;13.37;84.26
24422;BME280;12600;53.326;-6.298;2023-11-19T02:57:31;99416.34;;;13.32;84.65
24422;BME280;12600;53.326;-6.298;2023-11-19T03:00:23;99420.31;;;13.34;84.56
24422;BME280;12600;53.326;-6.298;2023-11-19T03:03:17;99409.09;;;13.39;84.35
24422;BME280;12600;53.326;-6.298;2023-11-19T03:06:09;99406.97;;;13.33;84.74
24422;BME280;12600;53.326;-6.298;2023-11-19T03:08:59;99405.88;;;13.37;84.55
24422;BME280;12600;53.326;-6.298;2023-11-19T03:11:53;99403.13;;;13.37;84.33
24422;BME280;12600;53.326;-6.298;2023-11-19T03:14:43;99403.22;;;13.41;84.50
24422;BME280;12600;53.326;-6.298;2023-11-19T03:17:33;99398.91;;;13.40;84.93
24422;BME280;12600;53.326;-6.298;2023-11-19T03:20:24;99399.22;;;13.38;84.58
24422;BME280;12600;53.326;-6.298;2023-11-19T03:23:15;99405.97;;;13.41;84.62
24422;BME280;12600;53.326;-6.298;2023-11-19T03:26:05;99408.00;;;13.44;84.44
24422;BME280;12600;53.326;-6.298;2023-11-19T03:28:55;99399.47;;;13.49;84.33
24422;BME280;12600;53.326;-6.298;2023-11-19T03:31:45;99406.84;;;13.45;84.39
24422;BME280;12600;53.326;-6.298;2023-11-19T03:34:34;99400.72;;;13.52;83.76
24422;BME280;12600;53.326;-6.298;2023-11-19T03:37:25;99395.06;;;13.44;84.18
24422;BME280;12600;53.326;-6.298;2023-11-19T03:40:15;99383.03;;;13.49;84.25
24422;BME280;12600;53.326;-6.298;2023-11-19T03:43:04;99378.75;;;13.52;84.04
24422;BME280;12600;53.326;-6.298;2023-11-19T03:45:54;99377.59;;;13.53;83.95
24422;BME280;12600;53.326;-6.298;2023-11-19T03:48:43;99381.66;;;13.39;84.15
24422;BME280;12600;53.326;-6.298;2023-11-19T03:51:34;99355.34;;;13.38;84.97
24422;BME280;12600;53.326;-6.298;2023-11-19T03:54:25;99362.88;;;13.41;84.56
24422;BME280;12600;53.326;-6.298;2023-11-19T03:57:15;99361.41;;;13.28;84.91
24422;BME280;12600;53.326;-6.298;2023-11-19T04:00:06;99352.91;;;13.33;84.99
24422;BME280;12600;53.326;-6.298;2023-11-19T04:03:01;99346.25;;;13.34;84.65
24422;BME280;12600;53.326;-6.298;2023-11-19T04:05:51;99356.00;;;13.32;85.08
24422;BME280;12600;53.326;-6.298;2023-11-19T04:08:41;99354.13;;;13.36;84.77
24422;BME280;12600;53.326;-6.298;2023-11-19T04:11:32;99363.78;;;13.30;85.35
24422;BME280;12600;53.326;-6.298;2023-11-19T04:14:21;99349.69;;;13.31;85.45
24422;BME280;12600;53.326;-6.298;2023-11-19T04:17:11;99351.31;;;13.32;85.55
24422;BME280;12600;53.326;-6.298;2023-11-19T04:20:00;99361.03;;;13.30;85.68
24422;BME280;12600;53.326;-6.298;2023-11-19T04:22:52;99348.56;;;13.32;85.80
24422;BME280;12600;53.326;-6.298;2023-11-19T04:25:42;99345.94;;;13.20;85.44
24422;BME280;12600;53.326;-6.298;2023-11-19T04:28:33;99361.81;;;13.30;85.64
24422;BME280;12600;53.326;-6.298;2023-11-19T04:31:23;99369.06;;;13.38;84.96
24422;BME280;12600;53.326;-6.298;2023-11-19T04:34:14;99348.00;;;13.42;85.01
24422;BME280;12600;53.326;-6.298;2023-11-19T04:37:04;99351.53;;;13.43;84.86
24422;BME280;12600;53.326;-6.298;2023-11-19T04:39:56;99339.88;;;13.30;85.66
24422;BME280;12600;53.326;-6.298;2023-11-19T04:42:45;99362.97;;;13.29;86.47
24422;BME280;12600;53.326;-6.298;2023-11-19T04:45:36;99353.00;;;13.21;86.93
24422;BME280;12600;53.326;-6.298;2023-11-19T04:48:27;99351.22;;;13.29;86.97
24422;BME280;12600;53.326;-6.298;2023-11-19T04:51:29;99351.59;;;13.27;86.63
24422;BME280;12600;53.326;-6.298;2023-11-19T04:54:18;99348.22;;;13.18;86.44
24422;BME280;12600;53.326;-6.298;2023-11-19T04:57:07;99348.47;;;13.29;86.23
24422;BME280;12600;53.326;-6.298;2023-11-19T04:59:58;99346.81;;;13.24;86.47
24422;BME280;12600;53.326;-6.298;2023-11-19T05:02:50;99344.78;;;13.21;86.41
24422;BME280;12600;53.326;-6.298;2023-11-19T05:05:39;99345.81;;;13.32;86.27
24422;BME280;12600;53.326;-6.298;2023-11-19T05:08:28;99346.47;;;13.26;86.45
24422;BME280;12600;53.326;-6.298;2023-11-19T05:11:18;99349.69;;;13.31;86.41
24422;BME280;12600;53.326;-6.298;2023-11-19T05:14:07;99346.53;;;13.29;86.67
24422;BME280;12600;53.326;-6.298;2023-11-19T05:16:57;99349.63;;;13.28;86.37
24422;BME280;12600;53.326;-6.298;2023-11-19T05:19:48;99358.09;;;13.38;86.04
24422;BME280;12600;53.326;-6.298;2023-11-19T05:22:37;99349.44;;;13.36;85.57
24422;BME280;12600;53.326;-6.298;2023-11-19T05:25:27;99348.25;;;13.37;85.44
24422;BME280;12600;53.326;-6.298;2023-11-19T05:28:16;99350.53;;;13.51;85.17
24422;BME280;12600;53.326;-6.298;2023-11-19T05:31:06;99342.13;;;13.44;85.20
24422;BME280;12600;53.326;-6.298;2023-11-19T05:33:55;99337.59;;;13.52;84.88
24422;BME280;12600;53.326;-6.298;2023-11-19T05:36:47;99338.75;;;13.51;84.84
24422;BME280;12600;53.326;-6.298;2023-11-19T05:39:37;99335.72;;;13.56;84.73
24422;BME280;12600;53.326;-6.298;2023-11-19T05:42:27;99334.13;;;13.55;84.91
24422;BME280;12600;53.326;-6.298;2023-11-19T05:45:16;99329.31;;;13.48;85.15
24422;BME280;12600;53.326;-6.298;2023-11-19T05:48:06;99328.94;;;13.50;85.04
24422;BME280;12600;53.326;-6.298;2023-11-19T05:50:57;99318.81;;;13.54;84.87
24422;BME280;12600;53.326;-6.298;2023-11-19T05:53:48;99315.22;;;13.50;85.52
24422;BME280;12600;53.326;-6.298;2023-11-19T05:56:38;99320.34;;;13.51;86.10
24422;BME280;12600;53.326;-6.298;2023-11-19T05:59:27;99311.81;;;13.56;85.90
24422;BME280;12600;53.326;-6.298;2023-11-19T06:02:17;99311.75;;;13.53;86.02
24422;BME280;12600;53.326;-6.298;2023-11-19T06:05:07;99314.06;;;13.51;86.43
24422;BME280;12600;53.326;-6.298;2023-11-19T06:07:57;99310.31;;;13.39;87.58
24422;BME280;12600;53.326;-6.298;2023-11-19T06:10:48;99298.31;;;13.48;87.32
24422;BME280;12600;53.326;-6.298;2023-11-19T06:13:39;99305.81;;;13.51;87.00
24422;BME280;12600;53.326;-6.298;2023-11-19T06:16:28;99296.00;;;13.50;87.41
24422;BME280;12600;53.326;-6.298;2023-11-19T06:19:18;99302.28;;;13.50;87.42
24422;BME280;12600;53.326;-6.298;2023-11-19T06:22:07;99310.44;;;13.47;87.85
24422;BME280;12600;53.326;-6.298;2023-11-19T06:24:56;99297.59;;;13.51;87.45
24422;BME280;12600;53.326;-6.298;2023-11-19T06:27:49;99299.47;;;13.47;87.75
24422;BME280;12600;53.326;-6.298;2023-11-19T06:30:39;99296.50;;;13.55;87.76
24422;BME280;12600;53.326;-6.298;2023-11-19T06:33:29;99297.88;;;13.46;88.50
24422;BME280;12600;53.326;-6.298;2023-11-19T06:36:19;99290.09;;;13.48;89.03
24422;BME280;12600;53.326;-6.298;2023-11-19T06:39:09;99300.03;;;13.36;89.50
24422;BME280;12600;53.326;-6.298;2023-11-19T06:41:59;99291.31;;;13.31;89.55
24422;BME280;12600;53.326;-6.298;2023-11-19T06:44:50;99282.72;;;13.32;89.19
24422;BME280;12600;53.326;-6.298;2023-11-19T06:47:39;99288.78;;;13.22;89.60
24422;BME280;12600;53.326;-6.298;2023-11-19T06:50:28;99292.66;;;13.21;89.98
24422;BME280;12600;53.326;-6.298;2023-11-19T06:53:18;99291.59;;;13.26;90.16
24422;BME280;12600;53.326;-6.298;2023-11-19T06:56:18;99281.69;;;13.21;90.60
24422;BME280;12600;53.326;-6.298;2023-11-19T06:59:09;99284.97;;;13.27;90.28
24422;BME280;12600;53.326;-6.298;2023-11-19T07:02:00;99289.28;;;13.28;90.31
24422;BME280;12600;53.326;-6.298;2023-11-19T07:04:49;99291.66;;;13.29;90.64
24422;BME280;12600;53.326;-6.298;2023-11-19T07:07:39;99286.19;;;13.29;90.54
24422;BME280;12600;53.326;-6.298;2023-11-19T07:10:28;99307.69;;;13.27;90.72
24422;BME280;12600;53.326;-6.298;2023-11-19T07:13:18;99297.50;;;13.28;91.35
24422;BME280;12600;53.326;-6.298;2023-11-19T07:16:08;99276.09;;;13.33;91.61
24422;BME280;12600;53.326;-6.298;2023-11-19T07:19:00;99280.56;;;13.41;91.02
24422;BME280;12600;53.326;-6.298;2023-11-19T07:21:49;99285.53;;;13.36;91.14
24422;BME280;12600;53.326;-6.298;2023-11-19T07:24:39;99280.78;;;13.33;91.73
24422;BME280;12600;53.326;-6.298;2023-11-19T07:27:29;99284.91;;;13.42;91.36
24422;BME280;12600;53.326;-6.298;2023-11-19T07:30:18;99287.53;;;13.39;91.25
24422;BME280;12600;53.326;-6.298;2023-11-19T07:33:08;99285.63;;;13.39;91.86
24422;BME280;12600;53.326;-6.298;2023-11-19T07:35:58;99273.28;;;13.49;91.44
24422;BME280;12600;53.326;-6.298;2023-11-19T07:38:48;99272.81;;;13.47;91.00
24422;BME280;12600;53.326;-6.298;2023-11-19T07:41:38;99265.75;;;13.46;91.67
24422;BME280;12600;53.326;-6.298;2023-11-19T07:44:28;99277.88;;;13.45;92.04
24422;BME280;12600;53.326;-6.298;2023-11-19T07:47:18;99254.13;;;13.53;92.09
24422;BME280;12600;53.326;-6.298;2023-11-19T07:50:08;99258.75;;;13.49;92.71
24422;BME280;12600;53.326;-6.298;2023-11-19T07:53:00;99267.41;;;13.51;92.67
24422;BME280;12600;53.326;-6.298;2023-11-19T07:55:50;99268.63;;;13.53;92.50
24422;BME280;12600;53.326;-6.298;2023-11-19T07:58:39;99287.34;;;13.48;92.68
24422;BME280;12600;53.326;-6.298;2023-11-19T08:01:28;99277.66;;;13.54;92.79
24422;BME280;12600;53.326;-6.298;2023-11-19T08:04:18;99281.00;;;13.43;92.84
24422;BME280;12600;53.326;-6.298;2023-11-19T08:07:07;99282.72;;;13.52;92.79
24422;BME280;12600;53.326;-6.298;2023-11-19T08:09:58;99283.22;;;13.57;93.09
24422;BME280;12600;53.326;-6.298;2023-11-19T08:12:48;99292.81;;;13.67;92.58
24422;BME280;12600;53.326;-6.298;2023-11-19T08:15:37;99265.50;;;13.74;93.03
24422;BME280;12600;53.326;-6.298;2023-11-19T08:18:26;99288.69;;;13.77;93.20
24422;BME280;12600;53.326;-6.298;2023-11-19T08:21:16;99291.28;;;13.69;94.01
24422;BME280;12600;53.326;-6.298;2023-11-19T08:24:06;99292.97;;;13.74;93.70
24422;BME280;12600;53.326;-6.298;2023-11-19T08:26:57;99294.91;;;13.74;93.94
24422;BME280;12600;53.326;-6.298;2023-11-19T08:29:50;99301.25;;;13.78;94.06
24422;BME280;12600;53.326;-6.298;2023-11-19T08:32:39;99297.41;;;13.82;94.40
24422;BME280;12600;53.326;-6.298;2023-11-19T08:35:29;99295.09;;;13.84;95.52
24422;BME280;12600;53.326;-6.298;2023-11-19T08:38:19;99294.25;;;13.80;95.73
24422;BME280;12600;53.326;-6.298;2023-11-19T08:41:11;99288.06;;;13.87;95.42
24422;BME280;12600;53.326;-6.298;2023-11-19T08:44:01;99284.84;;;13.81;95.76
24422;BME280;12600;53.326;-6.298;2023-11-19T08:46:51;99294.81;;;13.70;96.48
24422;BME280;12600;53.326;-6.298;2023-11-19T08:49:40;99301.31;;;13.81;96.24
24422;BME280;12600;53.326;-6.298;2023-11-19T08:52:30;99310.00;;;13.83;96.25
24422;BME280;12600;53.326;-6.298;2023-11-19T08:55:22;99309.25;;;13.86;96.32
24422;BME280;12600;53.326;-6.298;2023-11-19T08:58:11;99313.25;;;13.89;96.77
24422;BME280;12600;53.326;-6.298;2023-11-19T09:01:03;99314.88;;;13.93;97.02
24422;BME280;12600;53.326;-6.298;2023-11-19T09:03:53;99313.28;;;13.92;97.48
24422;BME280;12600;53.326;-6.298;2023-11-19T09:06:42;99299.56;;;13.92;97.52
24422;BME280;12600;53.326;-6.298;2023-11-19T09:09:32;99320.97;;;13.83;98.63
24422;BME280;12600;53.326;-6.298;2023-11-19T09:12:23;99308.53;;;13.89;97.96
24422;BME280;12600;53.326;-6.298;2023-11-19T09:15:13;99319.38;;;13.82;98.86
24422;BME280;12600;53.326;-6.298;2023-11-19T09:18:04;99317.94;;;13.88;98.85
24422;BME280;12600;53.326;-6.298;2023-11-19T09:20:53;99311.72;;;13.91;98.64
24422;BME280;12600;53.326;-6.298;2023-11-19T09:23:43;99314.81;;;13.90;99.14
24422;BME280;12600;53.326;-6.298;2023-11-19T09:26:32;99329.16;;;14.03;98.52
24422;BME280;12600;53.326;-6.298;2023-11-19T09:29:22;99318.03;;;13.95;99.40
24422;BME280;12600;53.326;-6.298;2023-11-19T09:32:11;99328.31;;;13.98;99.62
24422;BME280;12600;53.326;-6.298;2023-11-19T09:35:03;99348.47;;;14.06;99.65
24422;BME280;12600;53.326;-6.298;2023-11-19T09:37:52;99345.22;;;14.00;100.00
24422;BME280;12600;53.326;-6.298;2023-11-19T09:40:42;99363.72;;;14.04;100.00
24422;BME280;12600;53.326;-6.298;2023-11-19T09:43:31;99348.97;;;14.12;100.00
24422;BME280;12600;53.326;-6.298;2023-11-19T09:46:22;99356.41;;;14.11;100.00
24422;BME280;12600;53.326;-6.298;2023-11-19T09:49:12;99363.13;;;14.14;100.00
24422;BME280;12600;53.326;-6.298;2023-11-19T09:52:04;99346.78;;;14.21;100.00
24422;BME280;12600;53.326;-6.298;2023-11-19T09:54:54;99365.56;;;14.19;100.00
24422;BME280;12600;53.326;-6.298;2023-11-19T09:57:43;99359.41;;;14.25;100.00
24422;BME280;12600;53.326;-6.298;2023-11-19T10:00:33;99375.09;;;14.25;100.00
24422;BME280;12600;53.326;-6.298;2023-11-19T10:03:23;99376.25;;;14.24;100.00
24422;BME280;12600;53.326;-6.298;2023-11-19T10:06:15;99387.66;;;14.26;100.00
24422;BME280;12600;53.326;-6.298;2023-11-19T10:09:05;99395.69;;;14.35;100.00
24422;BME280;12600;53.326;-6.298;2023-11-19T10:11:55;99398.75;;;14.30;100.00
24422;BME280;12600;53.326;-6.298;2023-11-19T10:14:44;99402.22;;;14.46;100.00
24422;BME280;12600;53.326;-6.298;2023-11-19T10:17:35;99401.97;;;14.35;100.00
24422;BME280;12600;53.326;-6.298;2023-11-19T10:20:24;99416.56;;;14.39;100.00
24422;BME280;12600;53.326;-6.298;2023-11-19T10:23:14;99419.91;;;14.48;100.00
24422;BME280;12600;53.326;-6.298;2023-11-19T10:26:06;99425.53;;;14.55;100.00
24422;BME280;12600;53.326;-6.298;2023-11-19T10:28:56;99430.63;;;14.53;100.00
24422;BME280;12600;53.326;-6.298;2023-11-19T10:31:56;99451.94;;;14.60;100.00
24422;BME280;12600;53.326;-6.298;2023-11-19T10:35:06;99459.03;;;14.61;100.00
24422;BME280;12600;53.326;-6.298;2023-11-19T10:37:56;99460.66;;;14.66;100.00
24422;BME280;12600;53.326;-6.298;2023-11-19T10:40:47;99463.88;;;14.68;100.00
24422;BME280;12600;53.326;-6.298;2023-11-19T10:43:44;99480.47;;;14.75;100.00
24422;BME280;12600;53.326;-6.298;2023-11-19T10:46:38;99470.81;;;14.62;100.00
24422;BME280;12600;53.326;-6.298;2023-11-19T10:49:28;99484.44;;;14.77;100.00
24422;BME280;12600;53.326;-6.298;2023-11-19T10:52:18;99489.03;;;14.70;100.00
24422;BME280;12600;53.326;-6.298;2023-11-19T10:55:11;99499.66;;;14.71;100.00
24422;BME280;12600;53.326;-6.298;2023-11-19T10:58:05;99491.91;;;14.77;100.00
24422;BME280;12600;53.326;-6.298;2023-11-19T11:00:58;99496.97;;;14.75;100.00
24422;BME280;12600;53.326;-6.298;2023-11-19T11:03:52;99515.88;;;14.76;100.00
24422;BME280;12600;53.326;-6.298;2023-11-19T11:06:44;99517.50;;;14.81;100.00
24422;BME280;12600;53.326;-6.298;2023-11-19T11:09:35;99512.88;;;14.85;100.00
24422;BME280;12600;53.326;-6.298;2023-11-19T11:12:25;99525.63;;;14.97;100.00
24422;BME280;12600;53.326;-6.298;2023-11-19T11:15:15;99515.69;;;14.89;100.00
24422;BME280;12600;53.326;-6.298;2023-11-19T11:18:09;99528.59;;;14.85;100.00
24422;BME280;12600;53.326;-6.298;2023-11-19T11:21:01;99534.88;;;14.85;100.00
24422;BME280;12600;53.326;-6.298;2023-11-19T11:24:37;99545.41;;;14.83;100.00
24422;BME280;12600;53.326;-6.298;2023-11-19T11:27:55;99535.28;;;14.87;100.00
24422;BME280;12600;53.326;-6.298;2023-11-19T11:31:06;99550.81;;;14.76;100.00
24422;BME280;12600;53.326;-6.298;2023-11-19T11:34:28;99544.09;;;14.96;99.96
24422;BME280;12600;53.326;-6.298;2023-11-19T11:37:32;99552.34;;;14.96;99.33
24422;BME280;12600;53.326;-6.298;2023-11-19T11:40:21;99560.06;;;15.10;98.55
24422;BME280;12600;53.326;-6.298;2023-11-19T11:43:43;99566.75;;;15.09;98.63
24422;BME280;12600;53.326;-6.298;2023-11-19T11:46:55;99557.47;;;14.98;98.61
24422;BME280;12600;53.326;-6.298;2023-11-19T11:49:47;99570.56;;;15.04;99.06
24422;BME280;12600;53.326;-6.298;2023-11-19T11:53:17;99571.25;;;14.98;99.43
24422;BME280;12600;53.326;-6.298;2023-11-19T11:56:08;99576.75;;;14.98;99.63
24422;BME280;12600;53.326;-6.298;2023-11-19T11:58:57;99578.94;;;14.89;100.00
24422;BME280;12600;53.326;-6.298;2023-11-19T12:01:58;99585.88;;;14.82;100.00
24422;BME280;12600;53.326;-6.298;2023-11-19T12:04:50;99585.88;;;14.82;100.00
24422;BME280;12600;53.326;-6.298;2023-11-19T12:07:40;99601.22;;;14.83;100.00
24422;BME280;12600;53.326;-6.298;2023-11-19T12:10:31;99585.97;;;14.86;100.00
24422;BME280;12600;53.326;-6.298;2023-11-19T12:13:21;99601.59;;;14.82;100.00
24422;BME280;12600;53.326;-6.298;2023-11-19T12:16:11;99596.88;;;14.82;100.00
24422;BME280;12600;53.326;-6.298;2023-11-19T12:19:03;99599.00;;;14.70;100.00
24422;BME280;12600;53.326;-6.298;2023-11-19T12:21:55;99597.09;;;14.74;100.00
24422;BME280;12600;53.326;-6.298;2023-11-19T12:24:48;99605.66;;;14.69;100.00
24422;BME280;12600;53.326;-6.298;2023-11-19T12:27:40;99613.81;;;14.65;100.00
24422;BME280;12600;53.326;-6.298;2023-11-19T12:30:30;99616.94;;;14.64;100.00
24422;BME280;12600;53.326;-6.298;2023-11-19T12:33:20;99633.56;;;14.51;100.00
24422;BME280;12600;53.326;-6.298;2023-11-19T12:36:10;99615.84;;;14.49;100.00
24422;BME280;12600;53.326;-6.298;2023-11-19T12:39:01;99627.91;;;14.44;100.00
24422;BME280;12600;53.326;-6.298;2023-11-19T12:41:52;99634.72;;;14.50;100.00
24422;BME280;12600;53.326;-6.298;2023-11-19T12:44:54;99644.72;;;14.43;100.00
24422;BME280;12600;53.326;-6.298;2023-11-19T12:47:45;99660.25;;;14.35;100.00
24422;BME280;12600;53.326;-6.298;2023-11-19T12:50:51;99648.13;;;14.36;100.00
24422;BME280;12600;53.326;-6.298;2023-11-19T12:53:49;99667.28;;;14.33;100.00
24422;BME280;12600;53.326;-6.298;2023-11-19T12:56:52;99650.25;;;14.27;100.00
24422;BME280;12600;53.326;-6.298;2023-11-19T12:59:41;99661.72;;;14.29;100.00
24422;BME280;12600;53.326;-6.298;2023-11-19T13:02:46;99676.59;;;14.28;100.00
24422;BME280;12600;53.326;-6.298;2023-11-19T13:05:36;99692.03;;;14.17;100.00
24422;BME280;12600;53.326;-6.298;2023-11-19T13:08:26;99695.75;;;14.09;100.00
24422;BME280;12600;53.326;-6.298;2023-11-19T13:11:19;99693.44;;;14.11;100.00
24422;BME280;12600;53.326;-6.298;2023-11-19T13:14:20;99695.41;;;14.10;100.00
24422;BME280;12600;53.326;-6.298;2023-11-19T13:17:14;99704.34;;;14.07;100.00
24422;BME280;12600;53.326;-6.298;2023-11-19T13:20:04;99704.72;;;14.06;100.00
24422;BME280;12600;53.326;-6.298;2023-11-19T13:22:58;99703.47;;;14.03;100.00
24422;BME280;12600;53.326;-6.298;2023-11-19T13:25:47;99724.81;;;14.10;99.27
24422;BME280;12600;53.326;-6.298;2023-11-19T13:28:37;99727.47;;;14.22;98.68
24422;BME280;12600;53.326;-6.298;2023-11-19T13:31:28;99737.75;;;14.25;98.54
24422;BME280;12600;53.326;-6.298;2023-11-19T13:34:17;99735.44;;;14.27;98.29
24422;BME280;12600;53.326;-6.298;2023-11-19T13:37:07;99753.44;;;14.24;98.07
24422;BME280;12600;53.326;-6.298;2023-11-19T13:39:56;99774.53;;;14.20;97.11
24422;BME280;12600;53.326;-6.298;2023-11-19T13:42:45;99776.50;;;14.20;96.79
24422;BME280;12600;53.326;-6.298;2023-11-19T13:45:35;99767.09;;;14.21;96.65
24422;BME280;12600;53.326;-6.298;2023-11-19T13:48:26;99765.03;;;14.18;96.30
24422;BME280;12600;53.326;-6.298;2023-11-19T13:51:16;99781.72;;;14.25;95.28
24422;BME280;12600;53.326;-6.298;2023-11-19T13:54:06;99757.25;;;14.20;94.42
24422;BME280;12600;53.326;-6.298;2023-11-19T13:56:55;99768.94;;;14.33;93.52
24422;BME280;12600;53.326;-6.298;2023-11-19T13:59:46;99765.66;;;14.43;93.01
24422;BME280;12600;53.326;-6.298;2023-11-19T14:02:35;99763.63;;;14.40;92.83
24422;BME280;12600;53.326;-6.298;2023-11-19T14:05:26;99774.69;;;14.43;91.71
24422;BME280;12600;53.326;-6.298;2023-11-19T14:08:18;99791.75;;;14.49;90.46
24422;BME280;12600;53.326;-6.298;2023-11-19T14:11:13;99791.75;;;14.49;89.69
24422;BME280;12600;53.326;-6.298;2023-11-19T14:14:02;99800.34;;;14.47;87.93
24422;BME280;12600;53.326;-6.298;2023-11-19T14:16:51;99784.22;;;14.46;87.47
24422;BME280;12600;53.326;-6.298;2023-11-19T14:19:41;99801.31;;;14.55;87.41
24422;BME280;12600;53.326;-6.298;2023-11-19T14:22:32;99807.81;;;14.47;87.06
24422;BME280;12600;53.326;-6.298;2023-11-19T14:25:21;99820.81;;;14.50;86.74
24422;BME280;12600;53.326;-6.298;2023-11-19T14:28:11;99817.44;;;14.57;86.94
24422;BME280;12600;53.326;-6.298;2023-11-19T14:31:00;99813.72;;;14.65;86.49
24422;BME280;12600;53.326;-6.298;2023-11-19T14:33:50;99809.31;;;14.60;87.09
24422;BME280;12600;53.326;-6.298;2023-11-19T14:36:42;99817.69;;;14.67;87.06
24422;BME280;12600;53.326;-6.298;2023-11-19T14:39:32;99816.47;;;14.65;86.22
24422;BME280;12600;53.326;-6.298;2023-11-19T14:42:22;99829.78;;;14.63;85.50
24422;BME280;12600;53.326;-6.298;2023-11-19T14:45:11;99819.75;;;14.54;84.85
24422;BME280;12600;53.326;-6.298;2023-11-19T14:48:05;99824.03;;;14.52;85.17
24422;BME280;12600;53.326;-6.298;2023-11-19T14:50:55;99829.66;;;14.43;85.00
24422;BME280;12600;53.326;-6.298;2023-11-19T14:53:44;99836.47;;;14.34;84.94